Hauptseite
METAR-TAF:

METAR-TAF

Flughäfen :

Newquay Cornwall, England

Newquay Cornwall Airport

Breite: 50-26N, Länge: 005-00W, Höhe: 119 m

Beobachtung

Neuester Wetterbericht von vor 9 Stunden und 33 Minuten, um 20:20 UTC
Wind 16 kt aus West
Temperatur 9°C
Luftfeuchtigkeit 76%
Luftdruck 1017 hPa
Sichtweite 10 km oder mehr
keine Wolken unter 1500 m und keine Kumulonimbus oder Gewitterwolken

METAR: EGHQ 252020Z 26016KT CAVOK 09/05 Q1017

Zeit: 06:53 (05:53 UTC)

Prognose

Neuester Wetterbericht von vor 12 Stunden und 53 Minuten, um 17:00 UTC
Gültige Prognose vom 25 um 18 UTC bis 25 um 21 UTC
Wind 18 kt aus West
Sichtweite 10 km oder mehr
Leicht bewölkt in der Höhe von 2000 ft
Zeitweise
vom 25 um 18 UTC bis 25 um 21 UTC
Wind 22 kt aus West, Böen bis zu 32 kt

TAF: EGHQ 251700Z 2518/2521 26018KT 9999 FEW020 TEMPO 2518/2521 27022G32KT

Wetterbeobachtungen und Prognosen von mehr als 4000 Flughäfen (METAR und TAF Bericht).

Die verfügbaren Stationen werden durch gelbe und rote Markierungen auf der Karte dargestellt.

Führen Sie die Maus auf sie, um den Namen der Station zu sehen.

Darauf klicken, um die Beobachtung von Wetterbeobachtungen und Prognosen zu sehen.

Um die Karte zu ändern : klicken Sie auf den grünen Tasten mit einem schwarzen Kreuz Zum Vergrößern, auf den grünen Button mit einem Gedankenstrich zu verkleinern, oder auf die grünen Pfeile für benachbarte Karten.


METAR-TAF: